KTCL 191353Z 00000KT 10SM CLR 28/24 A3005 RMK AO2 SLP172 T02830239